KTYR - Tyler, Texas, USA
Distance from station: WNW 10mi, 17km
Updated: Wed, 23-Oct-2019 3:53pm CDT
Clear
Clear
 Wind from SE
Wind: SE 16 mph , 26 km/h
Temperature: 79°F , 26°C
Dew Point: 36°F , 2°C
Humidity: 21%
Barometer: 30.01 inHg , 1016.3 hPa
Clouds: Clear
Visibility: 10 miles , 16 km
2019/10/23 20:53 KTYR 232053Z 13014KT 10SM CLR 26/02 A3001 RMK AO2 SLP156 T02560022 56030
KRFI - Henderson Rusk C, Texas, USA
Distance from station: ESE 25mi, 40km
Updated: Wed, 23-Oct-2019 3:55pm CDT
Clear
Clear
 Wind from SE
Wind: SE 13 mph , 20 km/h
Temperature: 77°F , 25°C
Dew Point: 41°F , 5°C
Humidity: 28%
Barometer: 30.04 inHg , 1017.3 hPa
Clouds: Clear
Visibility: 10 miles , 16 km
2019/10/23 20:55 KRFI 232055Z AUTO 14011KT 10SM CLR 25/05 A3004 RMK AO2 T02450045
 
KJSO - Jacksonville, Texas, USA
Distance from station: S 30mi, 48km
Updated: Wed, 23-Oct-2019 3:55pm CDT
Clear
Clear
 Wind from SE
Wind: SE 9 mph , 15 km/h
Temperature: 73°F , 23°C
Dew Point: 41°F , 5°C
Humidity: 31%
Barometer: 30.05 inHg , 1017.6 hPa
Clouds: Clear
Visibility: 10 miles , 16 km
2019/10/23 20:55 KJSO 232055Z AUTO 14008KT 10SM CLR 23/05 A3005 RMK AO2 T02370050
KGGG - Longview, Texas, USA
Distance from station: ENE 31mi, 50km
Updated: Wed, 23-Oct-2019 3:53pm CDT
Clear
Clear
 Wind from SSE
Wind: SSE 13 mph , 20 km/h
Temperature: 75°F , 24°C
Dew Point: 43°F , 6°C
Humidity: 31%
Barometer: 30.02 inHg , 1016.6 hPa
Clouds: Clear
Visibility: 10 miles , 16 km
2019/10/23 20:53 KGGG 232053Z 16011KT 10SM CLR 24/06 A3002 RMK AO2 SLP165 T02440061 56030
 
KJXI - Gilmer Muni, Texas, USA
Distance from station: NNE 33mi, 53km
Updated: Wed, 23-Oct-2019 3:55pm CDT

 Wind from SSE
Wind: SSE 9 mph , 15 km/h, Gust: 17 mph , 28 km/h
Temperature: 75°F , 24°C
Dew Point: 37°F , 3°C
Humidity: 25%
Barometer: 30.02 inHg , 1016.6 hPa
Visibility: 10 miles , 16 km
2019/10/23 20:55 KJXI 232055Z AUTO 15008G15KT 10SM 24/03 A3002 RMK AO2 T02390033
KJDD - Mineola/Quitman, Texas, USA
Distance from station: NNW 35mi, 56km
Updated: Wed, 23-Oct-2019 3:55pm CDT
Clear
Clear
 Wind from SSE
Wind: SSE 7 mph , 11 km/h
Temperature: 75°F , 24°C
Dew Point: 37°F , 3°C
Humidity: 25%
Barometer: 30.00 inHg , 1015.9 hPa
Clouds: Clear
Visibility: 10 miles , 16 km
2019/10/23 20:55 KJDD 232055Z AUTO 16006KT 10SM CLR 24/03 A3000 RMK AO2
 
KF44 - Athens, Texas, USA
Distance from station: WSW 36mi, 57km
Updated: Wed, 23-Oct-2019 3:55pm CDT
Clear
Clear
 Wind from SSE
Wind: SSE 13 mph , 20 km/h, Gust: 17 mph , 28 km/h
Temperature: 79°F , 26°C
Dew Point: 41°F , 5°C
Humidity: 26%
Barometer: 29.98 inHg , 1015.2 hPa
Clouds: Clear
Visibility: 10 miles , 16 km
2019/10/23 20:55 KF44 232055Z AUTO 16011G15KT 10SM CLR 26/05 A2998 RMK AO2
KPSN - Palestine Muni, Texas, USA
Distance from station: SW 44mi, 71km
Updated: Wed, 23-Oct-2019 3:55pm CDT
Clear
Clear
 Wind from SSE
Wind: SSE 10 mph , 17 km/h, Gust: 22 mph , 35 km/h
Temperature: 77°F , 25°C
Dew Point: 41°F , 5°C
Humidity: 28%
Barometer: 30.01 inHg , 1016.3 hPa
Clouds: Clear
Visibility: 10 miles , 16 km
2019/10/23 20:55 KPSN 232055Z AUTO 15009G19KT 10SM CLR 25/05 A3001 RMK AO2 T02530055
 
KASL - Marshall, Texas, USA
Distance from station: ENE 57mi, 92km
Updated: Wed, 23-Oct-2019 3:55pm CDT
Clear
Clear
 Wind from SSE
Wind: SSE 8 mph , 13 km/h
Temperature: 75°F , 24°C
Dew Point: 39°F , 4°C
Humidity: 27%
Barometer: 30.06 inHg , 1017.9 hPa
Clouds: Clear
Visibility: 10 miles , 16 km
2019/10/23 20:55 KASL 232055Z AUTO 15007KT 10SM CLR 24/04 A3006 RMK AO1 T02400043
KOSA - Mount Pleasant, Texas, USA
Distance from station: NNE 58mi, 93km
Updated: Wed, 23-Oct-2019 3:55pm CDT
Clear
Clear
 Wind from SSE
Wind: SSE 13 mph , 20 km/h, Gust: 23 mph , 37 km/h
Temperature: 77°F , 25°C
Dew Point: 36°F , 2°C
Humidity: 22%
Barometer: 30.03 inHg , 1016.9 hPa
Clouds: Clear
Visibility: 10 miles , 16 km
2019/10/23 20:55 KOSA 232055Z AUTO 16011G20KT 10SM CLR 25/02 A3003 RMK AO1 T02540016
 
KOCH - Nacogdoches, Texas, USA
Distance from station: SSE 59mi, 95km
Updated: Wed, 23-Oct-2019 3:56pm CDT
Clear
Clear
 Wind from SE
Wind: SE 13 mph , 20 km/h, Gust: 17 mph , 28 km/h
Temperature: 75°F , 24°C
Dew Point: 48°F , 9°C
Humidity: 39%
Barometer: 30.06 inHg , 1017.9 hPa
Clouds: Clear
Visibility: 10 miles , 16 km
2019/10/23 20:56 KOCH 232056Z AUTO 14011G15KT 10SM CLR 24/09 A3006 RMK AO2 SLP181 T02390089 56028
KSLR - Sulphur Springs, Texas, USA
Distance from station: NNW 64mi, 103km
Updated: Wed, 23-Oct-2019 3:55pm CDT
Clear
Clear
 Wind from SSE
Wind: SSE 15 mph , 24 km/h, Gust: 23 mph , 37 km/h
Temperature: 79°F , 26°C
Dew Point: 37°F , 3°C
Humidity: 23%
Barometer: 30.00 inHg , 1015.9 hPa
Clouds: Clear
Visibility: 10 miles , 16 km
2019/10/23 20:55 KSLR 232055Z AUTO 16013G20KT 10SM CLR 26/03 A3000 RMK AO2 T02550027
 
KTRL - Terrell, Texas, USA
Distance from station: WNW 66mi, 107km
Updated: Wed, 23-Oct-2019 3:53pm CDT
Clear
Clear
 Wind from SSE
Wind: SSE 15 mph , 24 km/h, Gust: 29 mph , 46 km/h
Temperature: 81°F , 27°C
Dew Point: 50°F , 10°C
Humidity: 34%
Barometer: 29.96 inHg , 1014.6 hPa
Clouds: Clear
Visibility: 10 miles , 16 km
2019/10/23 20:53 KTRL 232053Z AUTO 16013G25KT 10SM CLR 27/10 A2996 RMK AO2 SLP141 T02670100 56034
KCRS - Corsicana, Texas, USA
Distance from station: WSW 70mi, 113km
Updated: Wed, 23-Oct-2019 3:53pm CDT
Clear
Clear
 Wind from S
Wind: S 22 mph , 35 km/h, Gust: 26 mph , 43 km/h
Temperature: 81°F , 27°C
Dew Point: 50°F , 10°C
Humidity: 34%
Barometer: 29.98 inHg , 1015.2 hPa
Clouds: Clear
Visibility: 10 miles , 16 km
2019/10/23 20:53 KCRS 232053Z AUTO 17019G23KT 10SM CLR 27/10 A2998 RMK AO2 SLP147 T02720100 56032
 
KGVT - Greenville/Major, Texas, USA
Distance from station: NW 72mi, 115km
Updated: Wed, 23-Oct-2019 3:55pm CDT
Clear
Clear
 Wind from S
Wind: S 13 mph , 20 km/h, Gust: 24 mph , 39 km/h
Temperature: 81°F , 27°C
Dew Point: 45°F , 7°C
Humidity: 28%
Barometer: 29.97 inHg , 1014.9 hPa
Clouds: Clear
Visibility: 10 miles , 16 km
2019/10/23 20:55 KGVT 232055Z AUTO 17011G21KT 10SM CLR 27/07 A2997 RMK AO2

Metar display script from Saratoga-Weather.org